Shelocta, Pennsylvania
Current Conditions -  °F | °C
As of 1:15 AM on Tuesday 21 Oct 2014 (Local Time) from KIDI Reporting Station
Overcast Overcast  
Wind Chill: 50°   Ceiling: 3300
Heat Index: 50°   Visibility: 10mi
Dew Point: 46°   Wind: 0mph
Humidity: 87%   Direction: NA
Pressure: 29.9"   Gusts: NA
Location:  40.66°N, 79.3°W
Report Text: KIDI 210515Z AUTO 00000KT 10SM OVC033 10/08 A2990 RMK A01
Loading
Personal Weather Stations






























Interactive Weather Map
Tropical Storm Tracking
New forecast layout! Learn more

10-Day Weather Forecast

Advertisements
Track Severe Weather on mobile